createdAt,value
2019-03-26T00:02:29.358Z,65.83
2019-03-26T00:04:59.623Z,65.64
2019-03-26T00:07:29.759Z,65.26
2019-03-26T00:09:59.886Z,65.10
2019-03-26T00:12:30.033Z,65.07
2019-03-26T00:15:00.463Z,65.20
2019-03-26T00:17:30.590Z,64.93
2019-03-26T00:20:00.747Z,65.54
2019-03-26T00:22:30.907Z,64.94
2019-03-26T00:25:01.005Z,64.77
2019-03-26T00:27:31.262Z,64.89
2019-03-26T00:30:01.342Z,64.62
2019-03-26T00:32:31.623Z,64.87
2019-03-26T00:35:01.781Z,64.29
2019-03-26T00:37:31.882Z,64.54
2019-03-26T00:40:01.983Z,64.46
2019-03-26T00:42:32.049Z,64.51
2019-03-26T00:45:02.196Z,64.44
2019-03-26T00:47:32.275Z,64.95
2019-03-26T00:50:02.557Z,65.21
2019-03-26T00:52:32.627Z,64.63
2019-03-26T00:55:02.758Z,64.94
2019-03-26T00:57:32.975Z,65.15
2019-03-26T01:00:03.424Z,65.21
2019-03-26T01:02:33.510Z,64.83
2019-03-26T01:05:03.665Z,64.60
2019-03-26T01:07:33.773Z,64.60
2019-03-26T01:10:04.163Z,63.92
2019-03-26T01:12:34.301Z,63.73
2019-03-26T01:15:06.473Z,63.73
2019-03-26T01:17:36.574Z,64.35
2019-03-26T01:20:06.816Z,64.67
2019-03-26T01:22:37.038Z,65.04
2019-03-26T01:25:07.200Z,64.64
2019-03-26T01:27:37.371Z,64.02
2019-03-26T01:30:07.653Z,64.02
2019-03-26T01:32:37.752Z,63.93
2019-03-26T01:35:08.251Z,63.81
2019-03-26T01:37:38.473Z,64.20
2019-03-26T01:40:08.624Z,64.20
2019-03-26T01:42:38.676Z,64.05
2019-03-26T01:45:09.212Z,63.54
2019-03-26T01:47:39.351Z,63.36
2019-03-26T01:50:09.624Z,63.23
2019-03-26T01:52:39.726Z,63.23
2019-03-26T01:55:09.952Z,63.46
2019-03-26T01:57:40.156Z,63.36
2019-03-26T02:00:12.910Z,63.50
2019-03-26T02:02:43.332Z,64.11
2019-03-26T02:05:13.344Z,63.73
2019-03-26T02:07:45.414Z,63.85
2019-03-26T02:10:15.953Z,63.60
2019-03-26T02:12:51.586Z,63.55
2019-03-26T02:15:33.795Z,63.55
2019-03-26T02:18:04.117Z,63.31
2019-03-26T02:20:34.442Z,63.15
2019-03-26T02:23:04.561Z,63.15
2019-03-26T02:25:34.752Z,63.33
2019-03-26T02:28:04.898Z,63.30
2019-03-26T02:30:34.947Z,63.14
2019-03-26T02:33:05.204Z,63.25
2019-03-26T02:35:35.269Z,63.25
2019-03-26T02:38:05.365Z,63.60
2019-03-26T02:40:35.421Z,63.71
2019-03-26T02:43:05.571Z,63.69
2019-03-26T02:45:35.673Z,63.69
2019-03-26T02:48:05.816Z,63.44
2019-03-26T02:50:35.916Z,63.12
2019-03-26T02:53:08.754Z,63.12
2019-03-26T02:55:37.967Z,62.49
2019-03-26T02:58:08.039Z,62.49
2019-03-26T03:00:38.135Z,62.53
2019-03-26T03:03:08.383Z,62.53
2019-03-26T03:05:38.589Z,62.24
2019-03-26T03:08:08.740Z,62.24
2019-03-26T03:10:39.091Z,62.12
2019-03-26T03:13:09.285Z,62.14
2019-03-26T03:15:39.458Z,62.11
2019-03-26T03:18:09.623Z,62.18
2019-03-26T03:20:39.806Z,61.85
2019-03-26T03:23:10.043Z,61.87
2019-03-26T03:25:40.156Z,61.86
2019-03-26T03:28:10.301Z,61.52
2019-03-26T03:30:40.377Z,61.52
2019-03-26T03:33:10.531Z,62.18
2019-03-26T03:35:52.130Z,62.23
2019-03-26T03:38:12.680Z,62.44
2019-03-26T03:40:42.818Z,62.87
2019-03-26T03:43:12.978Z,63.71
2019-03-26T03:45:43.177Z,64.62
2019-03-26T03:48:13.275Z,64.58
2019-03-26T03:50:43.432Z,64.91
2019-03-26T03:53:13.605Z,64.89
2019-03-26T03:55:43.924Z,64.89
2019-03-26T03:58:14.064Z,64.71
2019-03-26T04:00:44.331Z,64.74
2019-03-26T04:03:14.505Z,64.68
2019-03-26T04:05:44.972Z,64.75
2019-03-26T04:08:15.034Z,64.75
2019-03-26T04:10:45.310Z,65.91
2019-03-26T04:13:15.462Z,66.03
2019-03-26T04:15:45.635Z,66.33
2019-03-26T04:18:15.803Z,66.33
2019-03-26T04:20:46.101Z,66.67
2019-03-26T04:23:16.198Z,66.17
2019-03-26T04:25:46.321Z,66.17
2019-03-26T04:28:16.500Z,65.89
2019-03-26T04:30:46.791Z,66.09
2019-03-26T04:33:16.946Z,66.90
2019-03-26T04:35:47.233Z,66.90
2019-03-26T04:38:17.414Z,66.48
2019-03-26T04:40:47.740Z,65.99
2019-03-26T04:43:19.139Z,66.40
2019-03-26T04:45:49.447Z,66.56
2019-03-26T04:48:19.534Z,66.94
2019-03-26T04:50:49.856Z,67.85
2019-03-26T04:53:19.946Z,67.85
2019-03-26T04:55:50.230Z,68.25
2019-03-26T04:58:20.400Z,68.25
2019-03-26T05:00:50.671Z,67.78
2019-03-26T05:03:20.637Z,67.78
2019-03-26T05:05:50.902Z,68.32
2019-03-26T05:08:20.993Z,68.32
2019-03-26T05:10:51.166Z,68.62
2019-03-26T05:13:21.430Z,68.07
2019-03-26T05:15:51.609Z,67.54
2019-03-26T05:18:21.776Z,67.54
2019-03-26T05:20:52.052Z,67.42
2019-03-26T05:23:22.110Z,67.10
2019-03-26T05:25:52.497Z,67.10
2019-03-26T05:28:22.635Z,66.70
2019-03-26T05:30:52.840Z,66.70
2019-03-26T05:33:23.029Z,66.82
2019-03-26T05:35:53.263Z,66.29
2019-03-26T05:38:23.347Z,65.98
2019-03-26T05:40:53.527Z,65.98
2019-03-26T05:43:23.591Z,64.30
2019-03-26T05:45:53.872Z,64.30
2019-03-26T05:48:24.034Z,63.32
2019-03-26T05:50:54.325Z,62.29
2019-03-26T05:53:24.577Z,62.29
2019-03-26T05:55:54.777Z,60.35
2019-03-26T05:58:25.009Z,60.35
2019-03-26T06:00:55.304Z,59.65
2019-03-26T06:03:25.543Z,58.59
2019-03-26T06:05:55.849Z,57.77
2019-03-26T06:08:26.009Z,58.04
2019-03-26T06:10:56.204Z,58.02
2019-03-26T06:13:26.354Z,57.95
2019-03-26T06:15:56.525Z,57.81
2019-03-26T06:18:26.699Z,57.43
2019-03-26T06:20:56.907Z,57.27
2019-03-26T06:23:27.150Z,56.71
2019-03-26T06:25:57.309Z,56.02
2019-03-26T06:28:27.466Z,56.44
2019-03-26T06:30:57.752Z,57.07
2019-03-26T06:33:27.811Z,57.35
2019-03-26T06:35:57.981Z,56.96
2019-03-26T06:38:28.177Z,57.16
2019-03-26T06:40:58.444Z,56.87
2019-03-26T06:43:28.535Z,55.67
2019-03-26T06:45:58.731Z,54.32
2019-03-26T06:48:29.012Z,51.80
2019-03-26T06:50:59.064Z,48.97
2019-03-26T06:53:29.350Z,47.03
2019-03-26T06:55:59.505Z,45.39
2019-03-26T06:58:29.806Z,42.96
2019-03-26T07:00:59.959Z,41.70
2019-03-26T07:03:30.142Z,38.68
2019-03-26T07:06:00.289Z,38.10
2019-03-26T07:08:30.481Z,36.91
2019-03-26T07:11:00.662Z,35.74
2019-03-26T07:13:30.957Z,33.73
2019-03-26T07:16:01.240Z,32.40
2019-03-26T07:18:31.477Z,31.79
2019-03-26T07:21:01.633Z,33.04
2019-03-26T07:23:31.804Z,32.82
2019-03-26T07:26:01.960Z,33.05
2019-03-26T07:28:32.149Z,31.66
2019-03-26T07:31:02.273Z,32.92
2019-03-26T07:33:32.442Z,33.12
2019-03-26T07:36:02.741Z,35.25
2019-03-26T07:38:32.766Z,35.60
2019-03-26T07:41:03.265Z,35.98
2019-03-26T07:43:33.533Z,37.15
2019-03-26T07:46:03.804Z,37.84
2019-03-26T07:48:34.736Z,38.12
2019-03-26T07:51:05.018Z,38.42
2019-03-26T07:53:35.325Z,39.83
2019-03-26T07:56:06.260Z,40.57
2019-03-26T07:58:37.913Z,40.98
2019-03-26T08:01:08.893Z,41.71
2019-03-26T08:03:39.300Z,42.23
2019-03-26T08:06:10.051Z,42.19
2019-03-26T08:08:40.765Z,42.40
2019-03-26T08:11:11.293Z,42.67
2019-03-26T08:13:41.526Z,41.00
2019-03-26T08:16:11.800Z,41.53
2019-03-26T08:18:41.890Z,41.26
2019-03-26T08:21:12.187Z,40.97
2019-03-26T08:23:42.435Z,41.75
2019-03-26T08:26:12.629Z,41.85
2019-03-26T08:28:42.924Z,42.61
2019-03-26T08:31:13.217Z,42.84
2019-03-26T08:33:43.418Z,42.84
2019-03-26T08:36:13.657Z,42.93
2019-03-26T08:38:43.831Z,42.80
2019-03-26T08:41:14.034Z,42.64
2019-03-26T08:43:44.209Z,41.85
2019-03-26T08:46:14.343Z,42.18
2019-03-26T08:48:44.620Z,41.75
2019-03-26T08:51:14.847Z,41.77
2019-03-26T08:53:44.999Z,41.76
2019-03-26T08:56:15.155Z,41.75
2019-03-26T08:58:45.334Z,42.14
2019-03-26T09:01:15.493Z,42.42
2019-03-26T09:03:45.662Z,42.40
2019-03-26T09:06:15.938Z,41.27
2019-03-26T09:08:46.188Z,41.73
2019-03-26T09:11:16.417Z,40.84
2019-03-26T09:13:46.551Z,41.10
2019-03-26T09:16:16.827Z,40.95
2019-03-26T09:18:47.004Z,40.99
2019-03-26T09:21:17.279Z,41.51
2019-03-26T09:23:47.358Z,41.95
2019-03-26T09:26:17.511Z,41.99
2019-03-26T09:28:48.110Z,41.63
2019-03-26T09:31:18.342Z,41.53
2019-03-26T09:33:48.553Z,41.68
2019-03-26T09:36:18.726Z,41.07
2019-03-26T09:38:48.880Z,40.34
2019-03-26T09:41:19.161Z,39.97
2019-03-26T09:43:49.202Z,39.85
2019-03-26T09:46:19.502Z,40.42
2019-03-26T09:48:49.743Z,40.94
2019-03-26T09:51:20.195Z,40.69
2019-03-26T09:53:50.426Z,40.48
2019-03-26T09:56:29.169Z,40.25
2019-03-26T09:58:52.679Z,41.06
2019-03-26T10:01:22.801Z,39.60
2019-03-26T10:03:53.005Z,37.47
2019-03-26T10:06:24.166Z,34.34
2019-03-26T10:08:54.331Z,33.55
2019-03-26T10:11:24.446Z,32.64
2019-03-26T10:13:54.532Z,31.80
2019-03-26T10:16:24.778Z,33.20
2019-03-26T10:18:54.944Z,33.41
2019-03-26T10:21:25.010Z,34.42
2019-03-26T10:23:55.198Z,35.59
2019-03-26T10:26:25.263Z,35.36
2019-03-26T10:28:55.537Z,35.89
2019-03-26T10:31:25.687Z,36.07
2019-03-26T10:33:55.883Z,33.94
2019-03-26T10:36:25.967Z,34.37
2019-03-26T10:39:05.598Z,33.23
2019-03-26T10:41:28.006Z,32.41
2019-03-26T10:43:58.116Z,29.90
2019-03-26T10:46:28.285Z,31.29
2019-03-26T10:48:58.647Z,31.19
2019-03-26T10:51:28.798Z,31.92
2019-03-26T10:53:58.960Z,33.49
2019-03-26T10:56:29.051Z,34.74
2019-03-26T10:58:59.345Z,35.50
2019-03-26T11:01:29.397Z,35.33
2019-03-26T11:03:59.919Z,35.94
2019-03-26T11:06:30.062Z,35.40
2019-03-26T11:09:00.317Z,35.51
2019-03-26T11:11:30.495Z,35.08
2019-03-26T11:14:00.951Z,35.98
2019-03-26T11:16:31.043Z,35.00
2019-03-26T11:19:01.535Z,35.36
2019-03-26T11:21:31.899Z,35.67
2019-03-26T11:24:02.137Z,35.42
2019-03-26T11:26:32.328Z,35.02
2019-03-26T11:29:02.601Z,34.52
2019-03-26T11:31:32.861Z,33.87
2019-03-26T11:34:03.038Z,34.07
2019-03-26T11:36:33.338Z,33.68
2019-03-26T11:39:04.454Z,34.19
2019-03-26T11:41:34.875Z,34.66
2019-03-26T11:44:05.196Z,34.38
2019-03-26T11:46:35.542Z,34.87
2019-03-26T11:49:05.822Z,34.44
2019-03-26T11:51:36.013Z,34.19
2019-03-26T11:54:06.167Z,34.12
2019-03-26T11:56:36.332Z,34.66
2019-03-26T11:59:06.595Z,34.60
2019-03-26T12:01:36.802Z,34.31
2019-03-26T12:04:07.046Z,34.12
2019-03-26T12:06:37.209Z,34.03
2019-03-26T12:09:09.016Z,32.21
2019-03-26T12:11:39.315Z,30.66
2019-03-26T12:14:09.919Z,28.80
2019-03-26T12:16:40.433Z,30.67
2019-03-26T12:19:11.678Z,31.74
2019-03-26T12:21:42.311Z,31.10
2019-03-26T12:24:12.480Z,30.15
2019-03-26T12:26:43.086Z,30.47
2019-03-26T12:29:13.123Z,30.83
2019-03-26T12:31:43.602Z,30.40
2019-03-26T12:34:14.040Z,30.03
2019-03-26T12:36:44.467Z,29.67
2019-03-26T12:39:14.525Z,30.04
2019-03-26T12:41:44.761Z,29.40
2019-03-26T12:44:14.860Z,29.57
2019-03-26T12:46:45.118Z,28.98
2019-03-26T12:49:15.282Z,29.41
2019-03-26T12:51:45.587Z,30.60
2019-03-26T12:54:15.654Z,29.93
2019-03-26T12:56:45.854Z,29.62
2019-03-26T12:59:16.077Z,28.00
2019-03-26T13:01:46.378Z,26.69
2019-03-26T13:04:16.914Z,25.65
2019-03-26T13:06:47.379Z,25.29
2019-03-26T13:09:17.586Z,25.86
2019-03-26T13:11:47.849Z,25.24
2019-03-26T13:14:18.024Z,25.32
2019-03-26T13:16:48.225Z,24.65
2019-03-26T13:19:18.495Z,24.53
2019-03-26T13:21:48.887Z,24.99
2019-03-26T13:24:19.015Z,26.39
2019-03-26T13:26:49.260Z,27.21
2019-03-26T13:29:19.606Z,27.94
2019-03-26T13:31:49.816Z,28.10
2019-03-26T13:34:19.926Z,29.22
2019-03-26T13:36:50.307Z,29.49
2019-03-26T13:39:20.387Z,29.95
2019-03-26T13:41:50.444Z,29.82
2019-03-26T13:44:20.715Z,28.56
2019-03-26T13:46:50.828Z,28.28
2019-03-26T13:49:20.922Z,27.26
2019-03-26T13:51:51.133Z,27.28
2019-03-26T13:54:21.276Z,27.22
2019-03-26T13:56:51.560Z,27.80
2019-03-26T13:59:21.726Z,27.40
2019-03-26T14:01:52.104Z,27.01
2019-03-26T14:04:22.596Z,27.81
2019-03-26T14:06:52.903Z,27.25
2019-03-26T14:09:23.184Z,27.47
2019-03-26T14:11:53.345Z,27.51
2019-03-26T14:14:23.508Z,27.99
2019-03-26T14:16:54.296Z,27.69
2019-03-26T14:19:24.672Z,28.68
2019-03-26T14:21:54.868Z,28.25
2019-03-26T14:24:25.517Z,28.83
2019-03-26T14:26:55.610Z,29.41
2019-03-26T14:29:25.771Z,29.47
2019-03-26T14:31:55.950Z,29.01
2019-03-26T14:34:26.320Z,29.31
2019-03-26T14:36:56.850Z,28.75
2019-03-26T14:39:27.403Z,28.83
2019-03-26T14:41:57.636Z,29.41
2019-03-26T14:44:28.041Z,29.44
2019-03-26T14:46:58.279Z,29.65
2019-03-26T14:49:28.484Z,31.02
2019-03-26T14:51:58.563Z,31.42
2019-03-26T14:54:28.854Z,32.09
2019-03-26T14:56:59.120Z,31.59
2019-03-26T14:59:29.372Z,31.57
2019-03-26T15:01:59.540Z,31.51
2019-03-26T15:04:29.698Z,31.66
2019-03-26T15:06:59.886Z,31.81
2019-03-26T15:09:30.248Z,31.63
2019-03-26T15:12:00.321Z,32.01
2019-03-26T15:14:30.615Z,32.39
2019-03-26T15:17:00.841Z,32.56
2019-03-26T15:19:31.447Z,32.26
2019-03-26T15:22:01.720Z,31.78
2019-03-26T15:24:33.018Z,32.30
2019-03-26T15:27:03.300Z,32.10
2019-03-26T15:29:33.795Z,32.31
2019-03-26T15:32:05.476Z,32.58
2019-03-26T15:34:36.520Z,31.78
2019-03-26T15:37:08.226Z,31.88
2019-03-26T15:39:38.752Z,31.40
2019-03-26T15:42:08.810Z,31.67
2019-03-26T15:44:39.338Z,31.71
2019-03-26T15:47:09.594Z,31.50
2019-03-26T15:49:39.746Z,30.95
2019-03-26T15:52:09.724Z,31.25
2019-03-26T15:54:40.016Z,31.77
2019-03-26T15:57:10.162Z,31.98
2019-03-26T15:59:40.385Z,32.31
2019-03-26T16:02:10.371Z,32.48
2019-03-26T16:04:40.775Z,32.68
2019-03-26T16:07:10.917Z,32.90
2019-03-26T16:09:41.059Z,32.91
2019-03-26T16:12:11.382Z,33.02
2019-03-26T16:14:41.675Z,33.02
2019-03-26T16:17:11.765Z,33.04
2019-03-26T16:19:41.752Z,32.43
2019-03-26T16:22:12.136Z,32.73
2019-03-26T16:24:42.308Z,33.06
2019-03-26T16:27:12.611Z,33.51
2019-03-26T16:29:42.769Z,33.76
2019-03-26T16:32:12.905Z,34.29
2019-03-26T16:34:43.150Z,34.40
2019-03-26T16:37:13.256Z,33.76
2019-03-26T16:39:43.339Z,34.24
2019-03-26T16:42:13.668Z,34.51
2019-03-26T16:44:43.886Z,34.96
2019-03-26T16:47:14.180Z,34.86
2019-03-26T16:49:44.218Z,35.02
2019-03-26T16:52:14.380Z,35.27
2019-03-26T16:54:44.624Z,35.05
2019-03-26T16:57:14.914Z,35.11
2019-03-26T16:59:45.127Z,35.13
2019-03-26T17:02:15.426Z,35.04
2019-03-26T17:04:46.946Z,35.35
2019-03-26T17:07:17.337Z,35.38
2019-03-26T17:09:47.506Z,35.61
2019-03-26T17:12:17.805Z,35.51
2019-03-26T17:14:47.986Z,36.06
2019-03-26T17:17:18.141Z,36.76
2019-03-26T17:19:48.309Z,36.94
2019-03-26T17:22:18.592Z,37.05
2019-03-26T17:24:48.660Z,36.86
2019-03-26T17:27:18.932Z,37.30
2019-03-26T17:29:49.242Z,36.96
2019-03-26T17:32:19.491Z,37.13
2019-03-26T17:34:49.927Z,37.46
2019-03-26T17:37:20.383Z,37.65
2019-03-26T17:39:50.685Z,37.58
2019-03-26T17:42:21.717Z,38.00
2019-03-26T17:44:51.960Z,38.52
2019-03-26T17:47:22.235Z,38.99
2019-03-26T17:49:52.501Z,39.06
2019-03-26T17:52:22.695Z,39.61
2019-03-26T17:54:52.857Z,39.77
2019-03-26T17:57:23.147Z,39.49
2019-03-26T17:59:53.345Z,39.67
2019-03-26T18:02:23.706Z,39.90
2019-03-26T18:04:53.962Z,40.29
2019-03-26T18:07:24.330Z,40.66
2019-03-26T18:09:54.530Z,40.98
2019-03-26T18:12:30.702Z,41.35
2019-03-26T18:14:56.770Z,41.46
2019-03-26T18:17:27.233Z,42.14
2019-03-26T18:19:57.287Z,42.24
2019-03-26T18:22:27.501Z,42.57
2019-03-26T18:24:57.715Z,42.68
2019-03-26T18:27:27.777Z,42.91
2019-03-26T18:29:57.959Z,43.23
2019-03-26T18:32:28.148Z,43.63
2019-03-26T18:34:58.428Z,43.75
2019-03-26T18:37:28.660Z,44.25
2019-03-26T18:39:58.902Z,44.21
2019-03-26T18:42:29.151Z,43.86
2019-03-26T18:44:59.272Z,43.82
2019-03-26T18:47:29.579Z,44.05
2019-03-26T18:49:59.850Z,44.25
2019-03-26T18:52:29.994Z,44.29
2019-03-26T18:55:00.263Z,44.28
2019-03-26T18:57:30.559Z,44.38
2019-03-26T19:00:00.834Z,44.32
2019-03-26T19:02:30.884Z,44.26
2019-03-26T19:05:01.093Z,44.23
2019-03-26T19:07:31.265Z,44.07
2019-03-26T19:10:01.498Z,44.57
2019-03-26T19:12:31.762Z,44.90
2019-03-26T19:15:01.985Z,45.01
2019-03-26T19:17:32.155Z,45.24
2019-03-26T19:20:02.317Z,45.58
2019-03-26T19:22:32.355Z,45.62
2019-03-26T19:25:02.651Z,45.77
2019-03-26T19:27:33.823Z,45.94
2019-03-26T19:30:04.226Z,46.13
2019-03-26T19:32:34.312Z,46.75
2019-03-26T19:35:04.487Z,47.56
2019-03-26T19:37:34.630Z,47.88
2019-03-26T19:40:04.731Z,47.81
2019-03-26T19:42:34.738Z,48.23
2019-03-26T19:45:04.941Z,48.39
2019-03-26T19:47:35.116Z,48.79
2019-03-26T19:50:06.316Z,48.88
2019-03-26T19:52:36.815Z,48.87
2019-03-26T19:55:07.190Z,48.74
2019-03-26T19:57:37.336Z,48.69
2019-03-26T20:00:08.619Z,48.79
2019-03-26T20:02:38.904Z,49.44
2019-03-26T20:05:09.300Z,49.26
2019-03-26T20:07:39.452Z,49.36
2019-03-26T20:10:10.039Z,49.42
2019-03-26T20:12:39.998Z,49.30
2019-03-26T20:15:10.278Z,48.80
2019-03-26T20:17:40.433Z,48.60
2019-03-26T20:20:10.856Z,49.37
2019-03-26T20:22:40.989Z,49.88
2019-03-26T20:25:11.270Z,49.55
2019-03-26T20:27:41.535Z,48.96
2019-03-26T20:30:11.806Z,48.52
2019-03-26T20:32:42.076Z,48.91
2019-03-26T20:35:12.338Z,48.78
2019-03-26T20:37:42.514Z,48.85
2019-03-26T20:40:12.804Z,48.24
2019-03-26T20:42:44.782Z,48.10
2019-03-26T20:45:15.183Z,48.10
2019-03-26T20:47:45.484Z,48.37
2019-03-26T20:50:15.534Z,48.02
2019-03-26T20:52:45.723Z,48.04
2019-03-26T20:55:16.178Z,47.91
2019-03-26T20:57:46.599Z,47.80
2019-03-26T21:00:24.436Z,47.95
2019-03-26T21:02:54.966Z,48.39
2019-03-26T21:05:25.379Z,48.49
2019-03-26T21:07:55.408Z,48.67
2019-03-26T21:10:25.716Z,48.72
2019-03-26T21:12:56.017Z,49.26
2019-03-26T21:15:26.284Z,49.27
2019-03-26T21:17:56.535Z,49.20
2019-03-26T21:20:26.812Z,49.05
2019-03-26T21:22:56.999Z,49.16
2019-03-26T21:25:27.359Z,49.34
2019-03-26T21:27:57.534Z,49.56
2019-03-26T21:30:27.784Z,49.64
2019-03-26T21:32:57.974Z,50.17
2019-03-26T21:35:29.005Z,50.22
2019-03-26T21:37:59.404Z,50.34
2019-03-26T21:40:29.669Z,50.92
2019-03-26T21:42:59.778Z,51.42
2019-03-26T21:45:39.852Z,51.16
2019-03-26T21:48:10.053Z,51.55
2019-03-26T21:50:40.288Z,51.76
2019-03-26T21:53:10.496Z,52.08
2019-03-26T21:55:40.646Z,52.09
2019-03-26T21:58:10.716Z,51.85
2019-03-26T22:00:43.020Z,51.50
2019-03-26T22:03:13.033Z,51.05
2019-03-26T22:05:43.370Z,51.75
2019-03-26T22:08:13.645Z,52.37
2019-03-26T22:10:43.971Z,52.91
2019-03-26T22:13:14.381Z,52.58
2019-03-26T22:15:44.411Z,52.19
2019-03-26T22:18:14.707Z,51.53
2019-03-26T22:20:44.760Z,51.27
2019-03-26T22:23:14.972Z,51.03
2019-03-26T22:25:45.001Z,51.32
2019-03-26T22:28:15.181Z,51.36
2019-03-26T22:30:45.252Z,51.62
2019-03-26T22:33:15.406Z,51.08
2019-03-26T22:35:45.504Z,51.19
2019-03-26T22:38:15.756Z,51.44
2019-03-26T22:40:45.943Z,50.83
2019-03-26T22:43:16.220Z,50.77
2019-03-26T22:45:46.365Z,50.79
2019-03-26T22:48:16.665Z,53.75
2019-03-26T22:50:46.843Z,55.04
2019-03-26T22:53:17.005Z,55.18
2019-03-26T22:55:47.073Z,55.74
2019-03-26T22:58:17.363Z,54.17
2019-03-26T23:00:47.508Z,53.03
2019-03-26T23:03:17.708Z,52.62
2019-03-26T23:05:47.855Z,52.88
2019-03-26T23:08:18.144Z,52.67
2019-03-26T23:10:48.307Z,52.72
2019-03-26T23:13:18.591Z,51.89
2019-03-26T23:15:48.744Z,51.19
2019-03-26T23:18:18.969Z,51.03
2019-03-26T23:20:49.354Z,50.61
2019-03-26T23:23:19.534Z,50.23
2019-03-26T23:25:49.690Z,50.10
2019-03-26T23:28:19.864Z,50.17
2019-03-26T23:30:50.401Z,50.25
2019-03-26T23:33:20.714Z,50.14
2019-03-26T23:35:50.981Z,49.95
2019-03-26T23:38:21.132Z,49.81
2019-03-26T23:40:51.213Z,49.66
2019-03-26T23:43:21.395Z,49.85
2019-03-26T23:45:51.769Z,49.92
2019-03-26T23:48:21.927Z,50.35
2019-03-26T23:50:52.085Z,50.71
2019-03-26T23:53:22.293Z,50.67
2019-03-26T23:55:52.454Z,50.73
2019-03-26T23:58:22.535Z,50.74
